Time;durP1;ratioP1;P1;durP2;ratioP2;P2;SDS_P1;SDS_P2;PMS_P1;PMS_P2;Temp;Humidity;BMP_temperature;BMP_pressure;BME280_temperature;BME280_humidity;BME280_pressure;Samples;Min_cycle;Max_cycle;Signal;HPM_P1;HPM_P2
2022/01/02 00:00:33;;;;;;;;;21.25;20.50;;;;;13.28;67.49;101242.56;5081437;27;45593;-73
2022/01/02 00:03:03;;;;;;;;;23.25;20.00;;;;;13.31;67.78;101252.03;5072904;27;45705;-74
2022/01/02 00:05:34;;;;;;;;;23.50;21.50;;;;;13.30;67.23;101261.72;5073165;28;46467;-75
2022/01/02 00:08:02;;;;;;;;;25.75;22.25;;;;;13.30;67.39;101261.72;5073760;27;46332;-72
2022/01/02 00:10:31;;;;;;;;;21.00;18.50;;;;;13.27;67.41;101246.16;5073446;27;45613;-75
2022/01/02 00:12:59;;;;;;;;;24.25;21.50;;;;;13.31;67.65;101244.13;5073155;28;46048;-73
2022/01/02 00:15:24;;;;;;;;;21.25;20.00;;;;;13.31;67.61;101252.03;5072459;27;46440;-75
2022/01/02 00:17:55;;;;;;;;;25.50;21.00;;;;;13.32;67.55;101254.56;5074039;27;46118;-75
2022/01/02 00:20:32;;;;;;;;;23.75;19.75;;;;;13.31;67.22;101244.13;5084202;27;45799;-75
2022/01/02 00:23:05;;;;;;;;;21.50;19.50;;;;;13.29;67.58;101246.03;5072794;27;45887;-75
2022/01/02 00:25:35;;;;;;;;;19.75;18.25;;;;;13.25;67.59;101248.06;5086127;27;45642;-75
2022/01/02 00:28:01;;;;;;;;;20.75;19.50;;;;;13.29;67.51;101257.41;5080221;27;46131;-74
2022/01/02 00:30:26;;;;;;;;;19.00;18.00;;;;;13.27;67.61;101259.31;5082869;27;45606;-73
2022/01/02 00:32:52;;;;;;;;;18.75;17.75;;;;;13.24;67.03;101256.88;5073962;27;45744;-74
2022/01/02 00:35:18;;;;;;;;;27.50;20.50;;;;;13.23;67.43;101260.47;5075947;27;47504;-74
2022/01/02 00:37:44;;;;;;;;;23.00;21.00;;;;;13.27;67.34;101245.31;5087898;27;46286;-73
2022/01/02 00:40:10;;;;;;;;;21.25;21.00;;;;;13.26;67.00;101248.88;5093150;27;45660;-75
2022/01/02 00:42:41;;;;;;;;;19.75;19.00;;;;;13.26;67.08;101241.00;5093173;27;45899;-74
2022/01/02 00:45:15;;;;;;;;;24.00;21.25;;;;;13.25;67.24;101237.53;5093303;27;46385;-73
2022/01/02 00:47:45;;;;;;;;;21.75;20.00;;;;;13.21;67.05;101243.97;5094587;27;47120;-76
2022/01/02 00:50:12;;;;;;;;;19.75;19.00;;;;;13.23;67.42;101246.47;5091101;27;45782;-75
2022/01/02 00:52:40;;;;;;;;;25.25;23.50;;;;;13.23;67.40;101252.56;5106245;27;47001;-75
2022/01/02 00:55:26;;;;;;;;;25.25;19.50;;;;;13.19;67.39;101259.00;5102556;27;47753;-75
2022/01/02 00:57:58;;;;;;;;;25.25;23.50;;;;;13.21;67.40;101251.00;5094203;27;46475;-75
2022/01/02 01:00:24;;;;;;;;;23.50;20.50;;;;;13.19;67.56;101235.31;5101663;27;45854;-74
2022/01/02 01:02:57;;;;;;;;;28.25;25.25;;;;;13.20;67.61;101215.97;5097949;27;45616;-78
2022/01/02 01:05:29;;;;;;;;;22.75;20.00;;;;;13.20;67.41;101204.59;5100080;27;46253;-76
2022/01/02 01:07:59;;;;;;;;;24.25;20.75;;;;;13.18;67.50;101204.69;5092822;27;46197;-75
2022/01/02 01:10:28;;;;;;;;;19.75;19.00;;;;;13.18;67.17;101224.91;5092478;27;45821;-74
2022/01/02 01:12:57;;;;;;;;;19.00;17.75;;;;;13.18;67.07;101207.34;5092356;27;45827;-74
2022/01/02 01:15:24;;;;;;;;;19.75;18.50;;;;;13.18;67.29;101193.34;5093986;27;46661;-74
2022/01/02 01:17:55;;;;;;;;;20.00;18.50;;;;;13.19;67.39;101185.34;5104288;27;47119;-75
2022/01/02 01:20:22;;;;;;;;;18.50;18.50;;;;;13.18;67.25;101170.50;5092989;27;45827;-75
2022/01/02 01:22:48;;;;;;;;;19.25;17.75;;;;;13.16;67.49;101171.56;5092515;27;46004;-75
2022/01/02 01:25:17;;;;;;;;;22.00;21.00;;;;;13.17;67.42;101176.69;5103113;27;46491;-74
2022/01/02 01:27:46;;;;;;;;;19.00;18.75;;;;;13.12;67.48;101167.50;5093458;27;46115;-74
2022/01/02 01:30:13;;;;;;;;;19.25;19.25;;;;;13.15;67.06;101189.16;5092460;27;45794;-74
2022/01/02 01:32:39;;;;;;;;;19.50;18.00;;;;;13.16;67.30;101195.25;5092215;27;46031;-76
2022/01/02 01:35:06;;;;;;;;;21.00;19.50;;;;;13.16;67.26;101192.63;5105607;27;46942;-74
2022/01/02 01:37:32;;;;;;;;;17.25;17.25;;;;;13.15;67.23;101183.88;5099514;27;46005;-73
2022/01/02 01:39:58;;;;;;;;;19.00;17.00;;;;;13.15;67.50;101176.00;5092583;27;45639;-74
2022/01/02 01:42:38;;;;;;;;;22.75;19.75;;;;;13.15;67.05;101177.78;5093415;27;45550;-74
2022/01/02 01:48:07;;;;;;;;;20.50;19.00;;;;;13.08;67.35;101168.63;5092047;27;45980;-76
2022/01/02 01:50:38;;;;;;;;;22.00;18.25;;;;;13.13;67.24;101175.25;5092568;27;45845;-74
2022/01/02 01:53:05;;;;;;;;;20.00;18.75;;;;;13.03;66.99;101153.16;5092351;27;45721;-74
2022/01/02 01:55:35;;;;;;;;;17.75;16.50;;;;;13.15;67.53;101156.72;5091678;27;46938;-75
2022/01/02 01:58:01;;;;;;;;;19.00;17.75;;;;;13.13;67.21;101150.72;5094645;27;45636;-73
2022/01/02 02:00:27;;;;;;;;;20.75;18.75;;;;;13.13;67.51;101150.72;5100416;27;45787;-74
2022/01/02 02:02:55;;;;;;;;;18.00;16.75;;;;;13.15;67.12;101157.56;5094234;27;45780;-74
2022/01/02 02:05:20;;;;;;;;;18.00;16.75;;;;;13.13;67.60;101148.94;5093813;27;48788;-76
2022/01/02 02:07:46;;;;;;;;;18.75;15.75;;;;;13.12;67.12;101147.25;5115215;27;46276;-75
2022/01/02 02:10:23;;;;;;;;;17.25;17.25;;;;;13.12;67.27;101151.72;5110478;27;45783;-73
2022/01/02 02:12:51;;;;;;;;;20.25;18.00;;;;;13.08;67.36;101130.00;5103015;27;45704;-73
2022/01/02 02:15:17;;;;;;;;;18.75;17.25;;;;;13.09;67.09;101136.94;5101749;27;47356;-77
2022/01/02 02:17:45;;;;;;;;;16.50;16.00;;;;;13.09;67.34;101136.09;5108111;27;47303;-76
2022/01/02 02:20:22;;;;;;;;;19.25;17.50;;;;;13.08;67.17;101122.09;5095423;27;45910;-75
2022/01/02 02:22:52;;;;;;;;;18.00;13.50;;;;;13.09;67.56;101117.69;5096199;27;46058;-74
2022/01/02 02:25:20;;;;;;;;;16.75;15.75;;;;;13.08;67.32;101110.75;5095567;27;46474;-76
2022/01/02 02:27:55;;;;;;;;;17.50;16.50;;;;;13.07;67.47;101104.63;5088634;27;46445;-75
2022/01/02 02:30:21;;;;;;;;;17.00;16.00;;;;;13.03;67.23;101103.19;5100720;27;45797;-74
2022/01/02 02:32:47;;;;;;;;;16.50;15.00;;;;;13.08;67.31;101106.31;5104129;27;46020;-74
2022/01/02 02:35:14;;;;;;;;;19.50;16.75;;;;;13.08;67.31;101101.06;5105182;27;46724;-75
2022/01/02 02:37:42;;;;;;;;;19.00;17.25;;;;;13.09;67.25;101101.91;5074483;28;47371;-75
2022/01/02 02:40:08;;;;;;;;;16.25;14.00;;;;;13.09;67.17;101088.75;5074685;27;45754;-75
2022/01/02 02:42:50;;;;;;;;;16.25;15.50;;;;;13.03;67.25;101075.09;5074630;27;45544;-75
2022/01/02 02:51:11;;;;;;;;;18.00;16.25;;;;;13.09;66.99;101067.69;5075212;27;45693;-79
2022/01/02 02:53:43;;;;;;;;;18.00;17.00;;;;;13.09;67.44;101063.28;5075699;27;45660;-79
2022/01/02 02:56:40;;;;;;;;;15.50;14.50;;;;;13.08;67.52;101052.88;5079095;27;46557;-78
2022/01/02 02:58:58;;;;;;;;;15.75;14.50;;;;;13.07;67.36;101048.56;5086143;27;45675;-77
2022/01/02 03:01:28;;;;;;;;;16.25;15.50;;;;;13.08;66.97;101058.13;5077354;27;45621;-75
2022/01/02 03:03:54;;;;;;;;;15.50;14.25;;;;;13.08;67.55;101063.38;5074144;27;45804;-76
2022/01/02 03:06:21;;;;;;;;;17.00;15.25;;;;;13.10;67.05;101064.97;5081825;27;45675;-81
2022/01/02 03:08:48;;;;;;;;;13.00;13.00;;;;;13.09;67.30;101065.91;5080753;27;46985;-74
2022/01/02 03:11:16;;;;;;;;;19.50;15.50;;;;;13.10;67.32;101072.84;5074808;27;46131;-75
2022/01/02 03:13:43;;;;;;;;;16.75;13.00;;;;;13.09;67.10;101058.03;5074342;27;45811;-74
2022/01/02 03:16:09;;;;;;;;;18.25;17.50;;;;;13.05;67.42;101040.78;5075894;27;46683;-77
2022/01/02 03:18:35;;;;;;;;;14.00;14.00;;;;;13.06;66.95;101028.50;5085702;27;47309;-78
2022/01/02 03:21:00;;;;;;;;;15.75;12.75;;;;;13.03;67.36;101026.91;5075841;27;45748;-76
2022/01/02 03:23:26;;;;;;;;;20.75;15.75;;;;;13.05;67.15;101032.91;5076684;27;45664;-74
2022/01/02 03:25:52;;;;;;;;;18.00;14.50;;;;;13.01;67.51;101047.22;5085677;27;46395;-74
2022/01/02 03:28:17;;;;;;;;;18.25;15.00;;;;;12.99;67.20;101067.56;5074064;27;46232;-73
2022/01/02 03:30:43;;;;;;;;;15.75;13.00;;;;;13.00;66.95;101064.81;5082809;27;45728;-76
2022/01/02 03:33:08;;;;;;;;;16.25;14.50;;;;;13.00;67.33;101072.72;5080659;27;45667;-76
2022/01/02 03:35:34;;;;;;;;;17.75;16.00;;;;;12.97;67.12;101057.13;5097180;27;46838;-78
2022/01/02 03:38:01;;;;;;;;;13.00;12.00;;;;;12.97;67.17;101057.13;5109366;27;47237;-75
2022/01/02 03:40:27;;;;;;;;;16.75;15.50;;;;;12.99;67.24;101051.78;5095013;27;45711;-75
2022/01/02 03:42:53;;;;;;;;;14.25;12.25;;;;;13.01;67.33;101061.22;5095248;27;45604;-75
2022/01/02 03:45:18;;;;;;;;;13.25;13.00;;;;;12.98;67.02;101053.56;5094573;27;47008;-75
2022/01/02 03:47:44;;;;;;;;;16.25;13.25;;;;;13.00;67.25;101054.28;5096618;27;46062;-76
2022/01/02 03:50:09;;;;;;;;;18.00;14.50;;;;;12.97;67.23;101043.16;5105751;27;45469;-77
2022/01/02 03:52:35;;;;;;;;;16.75;15.25;;;;;12.97;67.12;101037.88;5109083;27;46133;-73
2022/01/02 03:55:00;;;;;;;;;13.25;13.25;;;;;12.95;67.44;101029.28;5104959;27;47347;-75
2022/01/02 03:57:26;;;;;;;;;15.75;14.00;;;;;12.98;67.19;101032.50;5106186;27;46074;-73
2022/01/02 03:59:51;;;;;;;;;12.75;12.25;;;;;12.86;67.18;101008.91;5112395;27;45810;-74
2022/01/02 04:02:18;;;;;;;;;12.50;12.50;;;;;12.99;67.38;101030.72;5101098;27;45935;-74
2022/01/02 04:04:43;;;;;;;;;11.25;11.00;;;;;13.01;66.90;101036.69;5109443;27;46376;-73
2022/01/02 04:07:09;;;;;;;;;18.00;15.50;;;;;12.99;67.11;101026.31;5101059;27;45916;-75
2022/01/02 04:09:35;;;;;;;;;17.75;14.50;;;;;13.00;66.84;101030.63;5108427;27;45718;-75
2022/01/02 04:12:01;;;;;;;;;15.00;13.50;;;;;13.02;66.91;101035.75;5100771;27;45735;-73
2022/01/02 04:14:26;;;;;;;;;14.75;13.25;;;;;13.05;67.09;101030.28;5099005;27;45570;-74
2022/01/02 04:16:51;;;;;;;;;13.50;13.25;;;;;13.03;67.33;101032.16;5100789;27;46143;-75
2022/01/02 04:19:17;;;;;;;;;12.50;12.50;;;;;13.07;67.22;101024.88;5099754;27;45801;-73
2022/01/02 04:21:42;;;;;;;;;13.75;12.25;;;;;13.06;67.14;101010.91;5101167;27;45747;-75
2022/01/02 04:24:07;;;;;;;;;17.75;16.25;;;;;13.09;67.12;101002.78;5094822;27;46332;-74
2022/01/02 04:26:33;;;;;;;;;12.25;11.00;;;;;13.09;66.72;101004.56;5110366;27;46506;-75
2022/01/02 04:28:58;;;;;;;;;17.00;16.00;;;;;13.08;66.77;100997.63;5100041;27;45803;-75
2022/01/02 04:31:24;;;;;;;;;13.00;11.75;;;;;13.04;66.83;101012.81;5109437;27;45747;-73
2022/01/02 04:33:49;;;;;;;;;15.75;14.50;;;;;13.08;67.20;101009.00;5097607;27;46475;-74
2022/01/02 04:36:14;;;;;;;;;15.00;13.50;;;;;13.09;67.17;101015.94;5106219;27;46713;-73
2022/01/02 04:38:42;;;;;;;;;14.75;11.75;;;;;13.03;67.01;100990.94;5093883;27;45738;-76
2022/01/02 04:41:07;;;;;;;;;13.00;13.00;;;;;13.03;66.84;100995.34;5093597;27;45948;-75
2022/01/02 04:43:33;;;;;;;;;14.00;13.75;;;;;13.12;67.07;101005.19;5098285;27;46733;-74
2022/01/02 04:45:58;;;;;;;;;13.25;12.00;;;;;13.12;67.00;100993.88;5092977;27;45985;-74
2022/01/02 04:48:24;;;;;;;;;15.25;13.25;;;;;13.13;67.09;100999.00;5107137;27;45756;-72
2022/01/02 04:50:50;;;;;;;;;12.50;12.50;;;;;13.14;66.83;100977.00;5106337;27;45961;-77
2022/01/02 04:53:16;;;;;;;;;15.00;15.00;;;;;13.12;66.97;100978.88;5080902;27;48506;-74
2022/01/02 04:55:41;;;;;;;;;15.50;13.00;;;;;13.12;67.12;100978.88;5100516;27;46304;-74
2022/01/02 04:58:07;;;;;;;;;15.00;13.00;;;;;13.13;66.58;100985.00;5104722;27;45813;-73
2022/01/02 05:00:32;;;;;;;;;11.25;11.00;;;;;13.11;66.91;100966.69;5103605;27;45949;-76
2022/01/02 05:02:58;;;;;;;;;12.50;12.00;;;;;13.13;66.85;100949.00;5106323;27;46570;-76
2022/01/02 05:05:23;;;;;;;;;16.00;12.50;;;;;13.11;66.62;100934.28;5092445;27;46178;-75
2022/01/02 05:07:49;;;;;;;;;10.50;10.25;;;;;13.11;66.83;100929.84;5106864;27;45738;-78
2022/01/02 05:10:14;;;;;;;;;10.75;10.25;;;;;13.10;66.56;100936.06;5093381;27;45528;-74
2022/01/02 05:12:40;;;;;;;;;13.25;12.25;;;;;13.09;66.69;100938.81;5092719;27;46449;-75
2022/01/02 05:15:06;;;;;;;;;12.00;11.25;;;;;13.06;66.51;100952.19;5105391;27;45758;-75
2022/01/02 05:17:31;;;;;;;;;12.50;12.50;;;;;13.06;66.89;100960.94;5098142;27;45684;-75
2022/01/02 05:19:57;;;;;;;;;11.50;11.50;;;;;13.07;66.79;100965.22;5093069;27;46198;-77
2022/01/02 05:22:22;;;;;;;;;11.00;10.75;;;;;13.07;66.41;100973.09;5092963;27;46355;-76
2022/01/02 05:24:49;;;;;;;;;11.00;10.00;;;;;13.10;66.82;100964.16;5105188;27;46252;-75
2022/01/02 05:27:14;;;;;;;;;12.75;11.00;;;;;13.11;66.70;100955.31;5094248;27;45725;-76
2022/01/02 05:29:40;;;;;;;;;14.75;13.50;;;;;13.13;66.42;100951.63;5084225;27;45943;-74
2022/01/02 05:32:05;;;;;;;;;12.00;11.50;;;;;13.08;66.60;100914.28;5092539;27;47561;-80
2022/01/02 05:34:31;;;;;;;;;11.00;10.00;;;;;13.15;66.31;100941.00;5094386;27;46137;-77
2022/01/02 05:36:56;;;;;;;;;12.25;11.50;;;;;13.10;66.43;100935.22;5107211;27;45692;-74
2022/01/02 05:39:22;;;;;;;;;11.00;11.00;;;;;13.12;66.18;100923.66;5096706;27;45656;-76
2022/01/02 05:41:49;;;;;;;;;7.25;7.25;;;;;13.19;66.29;100947.69;5095918;27;46367;-76
2022/01/02 05:44:16;;;;;;;;;12.50;11.00;;;;;13.16;66.44;100932.16;5102823;27;47680;-76
2022/01/02 05:46:42;;;;;;;;;9.00;9.00;;;;;13.19;66.45;100930.13;5109677;27;45495;-74
2022/01/02 05:49:07;;;;;;;;;12.00;10.00;;;;;13.22;66.37;100935.16;5122699;27;45660;-75
2022/01/02 05:51:33;;;;;;;;;12.00;10.75;;;;;13.25;66.17;100944.59;5115258;27;47325;-78
2022/01/02 05:53:59;;;;;;;;;10.00;9.25;;;;;13.20;66.53;100937.06;5117300;27;45857;-77
2022/01/02 05:56:24;;;;;;;;;11.50;10.00;;;;;13.27;66.33;100961.13;5100277;27;45721;-78
2022/01/02 05:58:49;;;;;;;;;11.00;9.50;;;;;13.23;66.47;100951.75;5109353;27;45715;-77
2022/01/02 06:01:15;;;;;;;;;11.00;10.00;;;;;13.29;66.48;100967.94;5111279;27;46426;-76
2022/01/02 06:03:40;;;;;;;;;9.75;8.50;;;;;13.30;66.25;100958.25;5093780;27;48231;-80
2022/01/02 06:06:06;;;;;;;;;9.25;9.00;;;;;13.31;66.23;100946.75;5101413;27;45720;-80
2022/01/02 06:08:31;;;;;;;;;8.75;6.50;;;;;13.31;65.78;100954.66;5114419;27;45616;-79
2022/01/02 06:10:57;;;;;;;;;8.75;7.25;;;;;13.32;65.70;100946.66;5100641;27;47333;-73
2022/01/02 06:13:22;;;;;;;;;8.75;6.75;;;;;13.29;65.75;100936.34;5102429;27;46242;-75
2022/01/02 06:15:48;;;;;;;;;7.00;6.25;;;;;13.33;65.66;100940.41;5107125;27;45670;-75
2022/01/02 06:18:14;;;;;;;;;10.00;9.00;;;;;13.36;65.88;100937.56;5112736;27;45485;-75
2022/01/02 06:20:40;;;;;;;;;7.25;7.25;;;;;13.33;65.84;100924.63;5109400;27;45763;-75
2022/01/02 06:23:05;;;;;;;;;7.25;5.75;;;;;13.36;65.99;100913.03;5107577;27;45754;-78
2022/01/02 06:25:31;;;;;;;;;8.50;7.50;;;;;13.42;65.59;100925.72;5102218;27;45749;-77
2022/01/02 06:27:56;;;;;;;;;10.00;7.75;;;;;13.43;65.21;100954.56;5096170;27;45734;-76
2022/01/02 06:30:22;;;;;;;;;8.25;7.75;;;;;13.44;65.79;100932.53;5101040;27;46503;-77
2022/01/02 06:32:54;;;;;;;;;8.00;7.50;;;;;13.46;65.23;100948.22;5104974;27;46153;-79
2022/01/02 06:35:21;;;;;;;;;9.50;8.00;;;;;13.45;65.64;100971.06;5109816;27;45701;-79
2022/01/02 06:37:47;;;;;;;;;10.00;8.50;;;;;13.47;65.28;100962.22;5096913;27;45599;-76
2022/01/02 06:40:12;;;;;;;;;8.00;7.50;;;;;13.48;65.04;100961.25;5096476;27;46512;-75
2022/01/02 06:42:37;;;;;;;;;7.00;7.00;;;;;13.40;65.15;100951.31;5106575;27;45982;-76
2022/01/02 06:45:03;;;;;;;;;12.00;10.75;;;;;13.47;65.07;100959.56;5095829;27;45739;-74
2022/01/02 06:47:28;;;;;;;;;9.75;7.75;;;;;13.48;64.96;100967.38;5096135;27;45695;-75
2022/01/02 06:49:54;;;;;;;;;10.00;10.00;;;;;13.47;65.33;100972.75;5094910;27;45968;-75
2022/01/02 06:52:19;;;;;;;;;9.25;8.50;;;;;13.45;64.76;100967.59;5095193;27;45718;-77
2022/01/02 06:54:44;;;;;;;;;11.25;8.00;;;;;13.43;64.80;100972.16;5102465;27;45715;-77
2022/01/02 06:57:10;;;;;;;;;11.00;7.50;;;;;13.40;65.04;100954.78;5112959;27;45746;-77
2022/01/02 06:59:35;;;;;;;;;9.75;8.50;;;;;13.40;65.42;100965.31;5108149;27;46726;-78
2022/01/02 07:02:00;;;;;;;;;9.00;7.25;;;;;13.39;65.09;100973.31;5105107;27;46257;-77
2022/01/02 07:04:26;;;;;;;;;12.00;9.50;;;;;13.39;65.38;100960.16;5108467;27;45618;-79
2022/01/02 07:06:51;;;;;;;;;9.75;8.50;;;;;13.27;65.33;100953.22;5107345;27;45522;-73
2022/01/02 07:09:17;;;;;;;;;10.25;9.00;;;;;13.34;65.41;100951.78;5093226;27;48794;-75
2022/01/02 07:11:42;;;;;;;;;9.25;8.00;;;;;13.35;65.01;100964.00;5108485;27;46042;-79
2022/01/02 07:14:08;;;;;;;;;6.00;6.00;;;;;13.34;64.87;100976.31;5097093;27;45724;-78
2022/01/02 07:16:34;;;;;;;;;6.50;6.00;;;;;13.35;64.89;100977.16;5106115;27;45795;-73
2022/01/02 07:18:59;;;;;;;;;2.00;1.00;;;;;13.32;65.19;100970.34;5096368;27;46378;-75
2022/01/02 07:21:25;;;;;;;;;7.50;7.25;;;;;13.33;65.43;100971.19;5106820;27;45732;-77
2022/01/02 07:23:52;;;;;;;;;9.50;8.75;;;;;13.28;65.20;100971.50;5101023;27;45857;-76
2022/01/02 07:26:18;;;;;;;;;9.50;9.50;;;;;13.33;65.44;100974.63;5103381;27;45778;-73
2022/01/02 07:28:43;;;;;;;;;9.25;7.50;;;;;13.33;65.30;100982.50;5098965;27;45644;-74
2022/01/02 07:31:08;;;;;;;;;8.50;6.25;;;;;13.29;65.24;100985.50;5099529;27;46041;-76
2022/01/02 07:33:34;;;;;;;;;10.25;9.00;;;;;13.33;64.92;100981.72;5110103;27;45913;-74
2022/01/02 07:35:59;;;;;;;;;8.75;8.00;;;;;13.34;65.17;100973.66;5096756;27;45783;-76
2022/01/02 07:38:25;;;;;;;;;5.50;5.50;;;;;13.34;65.43;100986.00;5101881;27;45787;-74
2022/01/02 07:40:50;;;;;;;;;11.25;11.00;;;;;13.24;65.53;100970.06;5103268;27;45670;-76
2022/01/02 07:43:16;;;;;;;;;12.00;10.50;;;;;13.31;65.54;100988.88;5107746;27;45612;-74
2022/01/02 07:45:41;;;;;;;;;10.00;9.75;;;;;13.36;65.63;100992.81;5107263;27;45853;-76
2022/01/02 07:48:07;;;;;;;;;9.00;8.00;;;;;13.37;65.27;100998.94;5102257;27;46300;-74
2022/01/02 07:50:32;;;;;;;;;9.50;9.50;;;;;13.31;65.57;101000.25;5103557;27;47303;-75
2022/01/02 07:52:57;;;;;;;;;11.00;9.75;;;;;13.39;65.46;101016.25;5100474;27;45489;-77
2022/01/02 07:55:23;;;;;;;;;6.50;5.00;;;;;13.37;65.67;101020.00;5102988;27;46067;-77
2022/01/02 07:57:48;;;;;;;;;11.25;10.00;;;;;13.36;65.66;101027.03;5086758;27;46300;-74
2022/01/02 08:00:14;;;;;;;;;10.25;9.25;;;;;13.39;65.28;101034.69;5091769;27;46638;-74
2022/01/02 08:02:40;;;;;;;;;11.25;7.25;;;;;13.39;65.43;101032.06;5103736;27;46048;-74
2022/01/02 08:05:07;;;;;;;;;11.25;9.75;;;;;13.37;65.52;101047.16;5090226;27;45610;-76
2022/01/02 08:07:33;;;;;;;;;8.00;6.00;;;;;13.37;65.79;101044.50;5099995;27;46632;-74
2022/01/02 08:09:58;;;;;;;;;9.50;7.50;;;;;13.40;65.96;101061.84;5093501;27;46148;-76
2022/01/02 08:12:24;;;;;;;;;7.50;7.50;;;;;13.35;65.89;101072.72;5093104;27;45535;-73
2022/01/02 08:14:49;;;;;;;;;9.25;9.00;;;;;13.35;65.62;101064.84;5093785;27;45950;-76
2022/01/02 08:17:14;;;;;;;;;10.50;9.00;;;;;13.38;65.88;101069.03;5107031;27;47055;-73
2022/01/02 08:19:40;;;;;;;;;10.00;10.00;;;;;13.41;66.05;101074.91;5093769;27;46404;-74
2022/01/02 08:22:05;;;;;;;;;8.25;8.00;;;;;13.42;66.33;101076.59;5093739;27;45621;-75
2022/01/02 08:24:31;;;;;;;;;10.00;9.75;;;;;13.43;65.91;101082.69;5103730;27;45560;-73
2022/01/02 08:26:56;;;;;;;;;9.25;9.00;;;;;13.43;66.08;101083.53;5100873;27;46766;-74
2022/01/02 08:29:21;;;;;;;;;10.00;10.00;;;;;13.43;66.29;101082.69;5112896;27;46034;-77
2022/01/02 08:31:47;;;;;;;;;11.75;10.25;;;;;13.45;66.33;101088.66;5088028;27;45837;-76
2022/01/02 08:34:12;;;;;;;;;11.00;10.00;;;;;13.47;66.05;101091.19;5092982;27;45728;-74
2022/01/02 08:36:38;;;;;;;;;10.00;9.25;;;;;13.42;66.10;101073.97;5106728;27;46467;-75
2022/01/02 08:39:03;;;;;;;;;9.00;9.00;;;;;13.48;66.04;101080.56;5103839;27;46441;-76
2022/01/02 08:41:28;;;;;;;;;12.75;10.50;;;;;13.42;66.46;101081.84;5095711;27;45690;-73
2022/01/02 08:43:54;;;;;;;;;10.25;9.00;;;;;13.45;66.34;101078.97;5102736;27;45545;-75
2022/01/02 08:46:19;;;;;;;;;11.00;9.00;;;;;13.46;66.68;101085.06;5099692;27;46446;-77
2022/01/02 08:48:45;;;;;;;;;11.75;10.50;;;;;13.51;66.75;101096.09;5102910;27;45804;-75
2022/01/02 08:51:13;;;;;;;;;9.25;8.25;;;;;13.53;66.49;101093.34;5106487;27;45784;-74
2022/01/02 08:53:39;;;;;;;;;9.50;7.75;;;;;13.53;66.27;101090.72;5103560;27;45609;-77
2022/01/02 08:56:05;;;;;;;;;10.33;9.00;;;;;13.54;66.53;101103.78;5094924;27;46115;-75
2022/01/02 08:58:30;;;;;;;;;10.75;9.00;;;;;13.53;66.47;101101.25;5099953;27;47078;-74
2022/01/02 09:00:57;;;;;;;;;15.00;12.00;;;;;13.52;66.65;101097.78;5110876;27;46043;-75
2022/01/02 09:03:23;;;;;;;;;11.50;9.75;;;;;13.51;66.60;101105.78;5101485;27;45678;-77
2022/01/02 09:05:49;;;;;;;;;12.50;10.00;;;;;13.52;66.69;101110.09;5102435;27;47036;-73
2022/01/02 09:08:14;;;;;;;;;12.25;11.00;;;;;13.54;66.93;101116.09;5104700;27;46447;-74
2022/01/02 09:10:40;;;;;;;;;9.00;7.00;;;;;13.55;66.67;101117.78;5110728;27;45582;-74
2022/01/02 09:13:08;;;;;;;;;10.00;9.50;;;;;13.55;67.17;101117.78;5105288;27;45743;-74
2022/01/02 09:15:34;;;;;;;;;8.75;8.75;;;;;13.47;66.89;101109.63;5103454;27;45707;-75
2022/01/02 09:17:59;;;;;;;;;10.00;9.25;;;;;13.54;66.95;101118.75;5097260;27;47014;-75
2022/01/02 09:20:25;;;;;;;;;10.00;9.50;;;;;13.55;67.06;101113.34;5096307;27;45835;-73
2022/01/02 09:22:51;;;;;;;;;9.00;7.75;;;;;13.56;67.25;101132.59;5097660;27;45681;-75
2022/01/02 09:25:17;;;;;;;;;7.00;7.00;;;;;13.58;67.57;101133.34;5099686;27;46475;-75
2022/01/02 09:27:44;;;;;;;;;9.75;9.00;;;;;13.50;67.25;101125.16;5096137;27;45799;-75
2022/01/02 09:30:10;;;;;;;;;12.00;9.25;;;;;13.60;67.25;101136.72;5099226;27;45774;-76
2022/01/02 09:32:35;;;;;;;;;10.75;9.75;;;;;13.62;67.53;101134.78;5115736;27;45743;-76
2022/01/02 09:35:03;;;;;;;;;9.50;8.50;;;;;13.61;67.56;101135.72;5096096;27;46304;-74
2022/01/02 09:37:29;;;;;;;;;8.00;8.00;;;;;13.62;67.51;101137.41;5084370;27;47892;-75
2022/01/02 09:39:55;;;;;;;;;9.25;9.00;;;;;13.67;67.45;101140.53;5095930;27;45803;-76
2022/01/02 09:42:20;;;;;;;;;10.25;9.00;;;;;13.69;67.59;101136.84;5095860;27;45625;-74
2022/01/02 09:44:45;;;;;;;;;11.00;10.50;;;;;13.61;67.60;101122.56;5095330;27;47583;-75
2022/01/02 09:47:12;;;;;;;;;9.00;7.50;;;;;13.65;67.76;101116.97;5095512;27;45629;-76
2022/01/02 09:49:41;;;;;;;;;12.50;10.00;;;;;13.73;67.37;101129.53;5102628;27;45760;-75
2022/01/02 09:52:07;;;;;;;;;9.75;9.75;;;;;13.73;67.48;101134.81;5088452;27;45717;-74
2022/01/02 09:54:33;;;;;;;;;10.75;10.25;;;;;13.75;67.86;101130.28;5097489;27;46452;-74
2022/01/02 09:56:59;;;;;;;;;11.25;9.75;;;;;13.78;67.31;101135.31;5105195;27;45952;-74
2022/01/02 09:59:25;;;;;;;;;8.75;7.25;;;;;13.78;67.73;101124.75;5111711;27;45604;-76
2022/01/02 10:01:50;;;;;;;;;9.50;8.00;;;;;13.82;67.56;101131.47;5107561;27;45644;-78
2022/01/02 10:04:32;;;;;;;;;7.00;7.00;;;;;13.84;67.76;101143.59;5096820;27;45472;-74
2022/01/02 10:06:57;;;;;;;;;7.00;6.25;;;;;13.86;67.90;101143.47;5108698;27;46009;-76
2022/01/02 10:09:38;;;;;;;;;8.50;7.00;;;;;13.90;67.88;101149.34;5096645;27;45749;-76
2022/01/02 10:12:27;;;;;;;;;8.25;7.25;;;;;13.91;67.47;101135.22;5099050;27;46720;-75
2022/01/02 10:15:20;;;;;;;;;8.50;7.00;;;;;13.94;67.55;101141.06;5107194;27;47719;-74
2022/01/02 10:18:04;;;;;;;;;9.00;7.00;;;;;13.98;67.50;101141.69;5100196;27;46658;-78
2022/01/02 10:20:43;;;;;;;;;9.00;8.00;;;;;14.00;67.41;101151.16;5099315;27;45838;-78
2022/01/02 10:23:12;;;;;;;;;6.00;6.00;;;;;14.01;67.60;101137.03;5094042;27;45999;-75
2022/01/02 10:25:42;;;;;;;;;3.75;2.75;;;;;14.01;67.77;101131.75;5101061;27;47307;-76
2022/01/02 10:28:25;;;;;;;;;7.00;5.25;;;;;14.08;67.85;101135.59;5102463;27;46170;-75
2022/01/02 10:30:53;;;;;;;;;6.75;5.50;;;;;14.11;67.84;101135.34;5094915;27;45751;-73
2022/01/02 10:33:18;;;;;;;;;5.50;5.00;;;;;14.14;67.87;101140.38;5094379;27;46106;-75
2022/01/02 10:35:44;;;;;;;;;4.00;3.25;;;;;14.19;67.39;101140.03;5085639;27;46731;-74
2022/01/02 10:38:17;;;;;;;;;5.25;5.00;;;;;14.23;67.41;101137.03;5101710;27;46218;-77
2022/01/02 10:40:43;;;;;;;;;4.75;4.00;;;;;14.28;67.44;101140.16;5103689;27;45793;-78
2022/01/02 10:43:21;;;;;;;;;3.50;3.50;;;;;14.34;67.46;101133.56;5108468;27;45806;-76
2022/01/02 10:45:50;;;;;;;;;5.00;3.25;;;;;14.39;67.08;101127.97;5097654;27;47077;-78
2022/01/02 10:48:28;;;;;;;;;5.25;4.00;;;;;14.49;67.34;101132.38;5111830;27;46417;-76
2022/01/02 10:51:10;;;;;;;;;4.00;3.00;;;;;14.56;67.27;101128.31;5111015;27;45843;-74
2022/01/02 10:53:37;;;;;;;;;4.00;3.00;;;;;14.60;67.26;101136.81;5095118;27;45878;-75
2022/01/02 10:56:06;;;;;;;;;4.75;4.00;;;;;14.64;67.17;101138.25;5103719;27;46228;-74
2022/01/02 10:58:33;;;;;;;;;3.75;3.75;;;;;14.67;66.92;101133.56;5102287;27;47110;-73
2022/01/02 11:01:06;;;;;;;;;3.50;2.00;;;;;14.72;66.76;101133.22;5098359;27;45600;-75
2022/01/02 11:03:33;;;;;;;;;3.50;3.00;;;;;14.77;67.36;101125.75;5094313;27;45520;-74
2022/01/02 11:06:06;;;;;;;;;3.25;3.00;;;;;14.82;67.07;101128.88;5103038;27;46497;-78
2022/01/02 11:08:34;;;;;;;;;3.00;3.00;;;;;14.87;66.90;101150.44;5094939;27;46253;-76
2022/01/02 11:11:01;;;;;;;;;4.00;4.00;;;;;14.86;66.85;101125.00;5094570;27;45766;-79
2022/01/02 11:13:27;;;;;;;;;3.50;3.00;;;;;14.94;67.04;101129.69;5094898;27;45768;-77
2022/01/02 11:15:54;;;;;;;;;3.00;2.00;;;;;14.96;66.83;101133.00;5095729;27;46306;-75
2022/01/02 11:18:19;;;;;;;;;3.00;3.00;;;;;14.96;66.89;101127.75;5105550;27;46433;-78
2022/01/02 11:20:45;;;;;;;;;4.00;4.00;;;;;15.03;66.82;101131.56;5106290;27;45656;-80
2022/01/02 11:23:53;;;;;;;;;4.00;4.00;;;;;15.06;66.58;101134.78;5105866;27;45605;-73